Terminal Aerodrome Forecast
Issued by NWS Jackson, MS

Home | Current Version | Previous Version | Text Only | Print | Product List | Glossary On
Versions: 1 2 3 4 5 6 7 8 9 10 11 12 13 14
000
FTUS44 KJAN 280527
TAFGWO
TAF
KGWO 280527Z 2806/2906 14003KT P6SM FEW250
     FM281100 16010KT P6SM FEW008 SCT250
     FM281300 17012G20KT P6SM SCT008 BKN015
     FM281800 18013G22KT P6SM SCT015 BKN025
     FM282000 18018G28KT P6SM BKN035=

USA.gov is the U.S. government's official web portal to all federal, state and local government web resources and services.